createdAt,value
2017-10-28T00:01:39.600Z,11.30
2017-10-28T00:04:07.867Z,11.20
2017-10-28T00:06:36.144Z,11.20
2017-10-28T00:09:04.415Z,11.40
2017-10-28T00:11:32.699Z,11.30
2017-10-28T00:14:00.956Z,11.20
2017-10-28T00:16:29.202Z,11.20
2017-10-28T00:18:57.508Z,11.20
2017-10-28T00:21:25.781Z,11.10
2017-10-28T00:23:54.967Z,11.10
2017-10-28T00:26:24.370Z,11.20
2017-10-28T00:28:53.484Z,11.20
2017-10-28T00:31:27.415Z,11.20
2017-10-28T00:34:01.378Z,11.10
2017-10-28T00:36:29.638Z,11.20
2017-10-28T00:38:57.935Z,11.20
2017-10-28T00:41:26.224Z,11.30
2017-10-28T00:43:55.777Z,11.10
2017-10-28T00:46:24.799Z,11.10
2017-10-28T00:48:54.408Z,11.20
2017-10-28T00:51:23.441Z,11.30
2017-10-28T00:53:51.697Z,11.20
2017-10-28T00:56:19.244Z,11.20
2017-10-28T00:58:47.515Z,11.20
2017-10-28T01:01:15.803Z,11.20
2017-10-28T01:03:44.105Z,11.20
2017-10-28T01:06:12.364Z,11.20
2017-10-28T01:08:41.578Z,11.10
2017-10-28T01:11:13.204Z,11.00
2017-10-28T01:13:41.487Z,11.00
2017-10-28T01:16:10.637Z,10.90
2017-10-28T01:18:40.803Z,11.10
2017-10-28T01:21:09.480Z,11.10
2017-10-28T01:23:37.767Z,11.10
2017-10-28T01:26:06.063Z,11.10
2017-10-28T01:28:34.357Z,11.10
2017-10-28T01:31:02.642Z,11.10
2017-10-28T01:33:30.936Z,11.10
2017-10-28T01:35:59.198Z,11.10
2017-10-28T01:38:27.483Z,11.10
2017-10-28T01:40:55.743Z,11.10
2017-10-28T01:43:25.545Z,11.30
2017-10-28T01:45:53.794Z,11.40
2017-10-28T01:48:22.079Z,11.20
2017-10-28T01:50:50.339Z,11.20
2017-10-28T01:53:18.628Z,11.30
2017-10-28T01:55:46.918Z,11.10
2017-10-28T01:58:15.208Z,11.10
2017-10-28T02:00:43.459Z,11.10
2017-10-28T02:03:11.742Z,11.00
2017-10-28T02:05:39.992Z,11.10
2017-10-28T02:08:08.257Z,11.10
2017-10-28T02:10:36.547Z,11.10
2017-10-28T02:13:04.806Z,11.10
2017-10-28T02:15:33.124Z,11.20
2017-10-28T02:18:01.400Z,11.10
2017-10-28T02:20:29.660Z,11.20
2017-10-28T02:22:57.941Z,11.10
2017-10-28T02:25:25.435Z,11.10
2017-10-28T02:27:53.738Z,11.00
2017-10-28T02:30:21.998Z,11.00
2017-10-28T02:32:50.243Z,11.00
2017-10-28T02:35:21.836Z,11.00
2017-10-28T02:37:50.092Z,11.00
2017-10-28T02:40:18.390Z,10.90
2017-10-28T02:42:46.639Z,10.90
2017-10-28T02:45:14.897Z,10.90
2017-10-28T02:47:43.208Z,10.90
2017-10-28T02:50:11.457Z,10.90
2017-10-28T02:52:41.316Z,10.90
2017-10-28T02:55:10.971Z,10.80
2017-10-28T02:57:39.849Z,10.80
2017-10-28T03:00:10.852Z,10.70
2017-10-28T03:02:39.514Z,10.70
2017-10-28T03:05:07.835Z,10.80
2017-10-28T03:07:36.099Z,10.80
2017-10-28T03:10:04.357Z,10.70
2017-10-28T03:12:32.678Z,10.80
2017-10-28T03:15:00.958Z,10.70
2017-10-28T03:17:29.267Z,10.70
2017-10-28T03:19:57.551Z,10.60
2017-10-28T03:22:25.823Z,10.60
2017-10-28T03:24:55.476Z,10.60
2017-10-28T03:27:23.743Z,10.60
2017-10-28T03:29:51.996Z,10.60
2017-10-28T03:32:20.282Z,10.60
2017-10-28T03:34:47.780Z,10.50
2017-10-28T03:37:16.040Z,10.50
2017-10-28T03:39:44.332Z,10.50
2017-10-28T03:42:12.592Z,10.60
2017-10-28T03:44:42.175Z,10.50
2017-10-28T03:47:11.797Z,10.50
2017-10-28T03:49:40.054Z,10.50
2017-10-28T03:52:08.316Z,10.40
2017-10-28T03:54:36.615Z,10.40
2017-10-28T03:57:04.873Z,10.40
2017-10-28T03:59:33.119Z,10.30
2017-10-28T04:02:01.412Z,10.30
2017-10-28T04:04:28.900Z,10.30
2017-10-28T04:06:57.186Z,10.30
2017-10-28T04:09:25.449Z,10.20
2017-10-28T04:11:53.744Z,10.30
2017-10-28T04:14:22.035Z,10.20
2017-10-28T04:16:50.287Z,10.30
2017-10-28T04:19:18.539Z,10.30
2017-10-28T04:21:46.820Z,10.30
2017-10-28T04:24:15.079Z,10.20
2017-10-28T04:26:43.403Z,10.20
2017-10-28T04:29:11.667Z,10.20
2017-10-28T04:31:40.843Z,10.20
2017-10-28T04:34:09.554Z,10.20
2017-10-28T04:36:37.806Z,10.20
2017-10-28T04:39:06.072Z,10.20
2017-10-28T04:41:34.372Z,10.20
2017-10-28T04:44:02.656Z,10.10
2017-10-28T04:46:30.923Z,10.10
2017-10-28T04:48:59.248Z,10.10
2017-10-28T04:51:27.515Z,10.10
2017-10-28T04:53:55.011Z,10.10
2017-10-28T04:56:24.672Z,10.10
2017-10-28T04:58:52.941Z,10.10
2017-10-28T05:01:21.216Z,10.20
2017-10-28T05:03:49.515Z,10.10
2017-10-28T05:06:17.025Z,10.10
2017-10-28T05:08:45.287Z,10.10
2017-10-28T05:11:13.571Z,10.20
2017-10-28T05:13:41.859Z,10.30
2017-10-28T05:16:10.148Z,10.30
2017-10-28T05:18:38.408Z,10.30
2017-10-28T05:21:06.700Z,10.20
2017-10-28T05:23:34.960Z,10.20
2017-10-28T05:26:03.261Z,10.10
2017-10-28T05:28:31.541Z,10.10
2017-10-28T05:30:59.811Z,10.10
2017-10-28T05:33:28.122Z,10.10
2017-10-28T05:35:56.392Z,10.10
2017-10-28T05:38:30.931Z,10.00
2017-10-28T05:40:59.192Z,10.10
2017-10-28T05:43:27.516Z,10.00
2017-10-28T05:45:55.771Z,10.10
2017-10-28T05:48:25.063Z,10.00
2017-10-28T05:50:54.335Z,10.00
2017-10-28T05:53:23.818Z,10.00
2017-10-28T05:55:52.172Z,10.00
2017-10-28T05:58:20.427Z,10.00
2017-10-28T06:00:48.707Z,10.00
2017-10-28T06:03:16.998Z,10.10
2017-10-28T06:05:45.310Z,10.20
2017-10-28T06:08:13.569Z,10.10
2017-10-28T06:10:41.835Z,10.10
2017-10-28T06:13:10.001Z,10.10
2017-10-28T06:15:38.265Z,10.10
2017-10-28T06:18:06.553Z,10.10
2017-10-28T06:20:34.843Z,10.10
2017-10-28T06:23:03.099Z,10.20
2017-10-28T06:25:31.378Z,10.10
2017-10-28T06:27:59.638Z,10.20
2017-10-28T06:30:27.923Z,10.20
2017-10-28T06:32:56.175Z,10.30
2017-10-28T06:35:25.184Z,10.30
2017-10-28T06:37:54.054Z,10.20
2017-10-28T06:40:22.324Z,10.30
2017-10-28T06:42:50.626Z,10.30
2017-10-28T06:45:18.890Z,10.30
2017-10-28T06:47:47.403Z,10.30
2017-10-28T06:50:15.746Z,10.20
2017-10-28T06:52:44.035Z,10.30
2017-10-28T06:55:12.479Z,10.30
2017-10-28T06:57:41.359Z,10.30
2017-10-28T07:00:10.863Z,10.30
2017-10-28T07:02:39.738Z,10.20
2017-10-28T07:05:08.003Z,10.30
2017-10-28T07:07:37.244Z,10.30
2017-10-28T07:10:05.496Z,10.40
2017-10-28T07:12:33.742Z,10.30
2017-10-28T07:15:02.052Z,10.40
2017-10-28T07:17:30.299Z,10.40
2017-10-28T07:19:58.559Z,10.40
2017-10-28T07:22:26.844Z,10.30
2017-10-28T07:24:55.124Z,10.30
2017-10-28T07:27:26.475Z,10.30
2017-10-28T07:29:55.491Z,10.30
2017-10-28T07:32:23.747Z,10.30
2017-10-28T07:34:51.995Z,10.30
2017-10-28T07:37:20.285Z,10.30
2017-10-28T07:39:48.551Z,10.30
2017-10-28T07:42:16.815Z,10.30
2017-10-28T07:44:44.386Z,10.30
2017-10-28T07:47:12.674Z,10.40
2017-10-28T07:49:40.164Z,10.40
2017-10-28T07:52:08.455Z,10.40
2017-10-28T07:54:36.732Z,10.40
2017-10-28T07:57:04.292Z,10.40
2017-10-28T07:59:32.586Z,10.40
2017-10-28T08:02:00.843Z,10.50
2017-10-28T08:04:29.143Z,10.50
2017-10-28T08:06:57.443Z,10.50
2017-10-28T08:09:24.930Z,10.50
2017-10-28T08:11:54.216Z,10.40
2017-10-28T08:14:22.493Z,10.40
2017-10-28T08:16:50.806Z,10.40
2017-10-28T08:19:18.333Z,10.40
2017-10-28T08:21:46.595Z,10.50
2017-10-28T08:24:14.855Z,10.50
2017-10-28T08:26:43.145Z,10.50
2017-10-28T08:29:14.540Z,10.50
2017-10-28T08:31:42.823Z,10.60
2017-10-28T08:34:11.084Z,10.60
2017-10-28T08:36:40.547Z,10.70
2017-10-28T08:39:08.790Z,10.60
2017-10-28T08:41:37.051Z,10.60
2017-10-28T08:44:05.348Z,10.60
2017-10-28T08:46:33.639Z,10.60
2017-10-28T08:49:01.120Z,10.60
2017-10-28T08:51:29.423Z,10.70
2017-10-28T08:53:57.683Z,10.80
2017-10-28T08:56:25.188Z,10.70
2017-10-28T08:58:54.262Z,10.70
2017-10-28T09:01:23.681Z,10.80
2017-10-28T09:03:51.963Z,10.90
2017-10-28T09:06:20.215Z,10.90
2017-10-28T09:08:47.743Z,10.90
2017-10-28T09:11:15.995Z,10.90
2017-10-28T09:13:44.283Z,11.00
2017-10-28T09:16:12.544Z,11.00
2017-10-28T09:18:41.554Z,11.00
2017-10-28T09:21:10.371Z,11.00
2017-10-28T09:23:38.662Z,11.00
2017-10-28T09:26:06.948Z,11.00
2017-10-28T09:28:35.202Z,11.00
2017-10-28T09:31:03.503Z,11.10
2017-10-28T09:33:31.759Z,11.20
2017-10-28T09:36:00.016Z,11.10
2017-10-28T09:38:28.317Z,11.10
2017-10-28T09:40:56.574Z,11.10
2017-10-28T09:43:34.567Z,11.10
2017-10-28T09:46:02.859Z,11.10
2017-10-28T09:48:52.064Z,11.30
2017-10-28T09:51:20.323Z,11.20
2017-10-28T09:53:52.064Z,11.10
2017-10-28T09:56:20.348Z,11.10
2017-10-28T09:58:48.603Z,11.10
2017-10-28T10:01:16.854Z,11.20
2017-10-28T10:03:45.135Z,11.20
2017-10-28T10:06:13.391Z,11.20
2017-10-28T10:08:41.686Z,11.20
2017-10-28T10:11:10.562Z,11.20
2017-10-28T10:13:38.819Z,11.10
2017-10-28T10:16:07.127Z,11.20
2017-10-28T10:18:35.373Z,11.20
2017-10-28T10:21:04.548Z,11.20
2017-10-28T10:23:32.830Z,11.20
2017-10-28T10:26:13.640Z,11.20
2017-10-28T10:28:41.930Z,11.20
2017-10-28T10:31:27.628Z,11.30
2017-10-28T10:33:55.153Z,11.30
2017-10-28T10:36:28.310Z,11.30
2017-10-28T10:38:56.572Z,11.20
2017-10-28T10:41:28.411Z,11.20
2017-10-28T10:43:55.911Z,11.20
2017-10-28T10:46:24.966Z,11.30
2017-10-28T10:48:54.279Z,11.30
2017-10-28T10:51:23.222Z,11.40
2017-10-28T10:53:51.589Z,11.30
2017-10-28T10:56:19.856Z,11.30
2017-10-28T10:58:48.120Z,11.30
2017-10-28T11:01:16.420Z,11.20
2017-10-28T11:03:44.680Z,11.30
2017-10-28T11:06:12.948Z,11.30
2017-10-28T11:08:42.055Z,11.30
2017-10-28T11:11:10.354Z,11.30
2017-10-28T11:13:38.612Z,11.20
2017-10-28T11:16:06.875Z,11.20
2017-10-28T11:18:35.172Z,11.30
2017-10-28T11:21:03.431Z,11.40
2017-10-28T11:23:31.687Z,11.40
2017-10-28T11:25:59.978Z,11.40
2017-10-28T11:28:28.239Z,11.40
2017-10-28T11:30:56.544Z,11.40
2017-10-28T11:33:24.798Z,11.50
2017-10-28T11:35:54.041Z,11.40
2017-10-28T11:38:22.322Z,11.60
2017-10-28T11:40:50.585Z,11.50
2017-10-28T11:43:18.870Z,11.50
2017-10-28T11:45:47.158Z,11.50
2017-10-28T11:48:15.454Z,11.70
2017-10-28T11:50:43.751Z,11.70
2017-10-28T11:53:12.036Z,11.60
2017-10-28T11:55:40.332Z,11.70
2017-10-28T11:58:08.590Z,11.70
2017-10-28T12:00:36.852Z,11.60
2017-10-28T12:03:05.135Z,11.60
2017-10-28T12:05:33.390Z,11.70
2017-10-28T12:08:01.675Z,11.70
2017-10-28T12:10:29.963Z,11.80
2017-10-28T12:12:58.259Z,11.80
2017-10-28T12:15:26.515Z,11.80
2017-10-28T12:17:55.571Z,11.70
2017-10-28T12:20:23.863Z,11.70
2017-10-28T12:22:52.123Z,11.80
2017-10-28T12:25:20.412Z,11.90
2017-10-28T12:27:48.668Z,11.90
2017-10-28T12:30:16.976Z,12.00
2017-10-28T12:32:45.243Z,12.10
2017-10-28T12:35:13.499Z,12.10
2017-10-28T12:37:41.787Z,12.20
2017-10-28T12:40:10.988Z,12.20
2017-10-28T12:42:39.707Z,12.20
2017-10-28T12:45:07.974Z,12.20
2017-10-28T12:47:36.231Z,12.10
2017-10-28T12:50:11.786Z,12.10
2017-10-28T12:52:40.936Z,12.00
2017-10-28T12:55:09.750Z,12.10
2017-10-28T12:57:43.628Z,12.20
2017-10-28T13:00:11.921Z,12.20
2017-10-28T13:02:42.627Z,12.20
2017-10-28T13:05:12.158Z,12.20
2017-10-28T13:07:53.047Z,12.30
2017-10-28T13:10:21.345Z,12.30
2017-10-28T13:12:55.796Z,12.20
2017-10-28T13:15:25.211Z,12.30
2017-10-28T13:18:04.475Z,12.20
2017-10-28T13:20:32.735Z,12.20
2017-10-28T13:23:00.991Z,12.30
2017-10-28T13:25:33.735Z,12.20
2017-10-28T13:28:01.982Z,12.20
2017-10-28T13:33:26.624Z,12.30
2017-10-28T13:35:55.418Z,12.20
2017-10-28T13:38:26.742Z,12.20
2017-10-28T13:40:56.338Z,12.20
2017-10-28T13:43:26.509Z,12.20
2017-10-28T13:45:55.164Z,12.20
2017-10-28T13:48:25.011Z,12.20
2017-10-28T13:50:53.287Z,12.20
2017-10-28T13:53:21.595Z,12.20
2017-10-28T13:55:49.859Z,12.30
2017-10-28T13:58:18.116Z,12.20
2017-10-28T14:00:46.403Z,12.20
2017-10-28T14:03:17.455Z,12.20
2017-10-28T14:05:45.720Z,12.30
2017-10-28T14:08:13.991Z,12.30
2017-10-28T14:10:42.280Z,12.20
2017-10-28T14:13:11.515Z,12.10
2017-10-28T14:15:41.236Z,12.20
2017-10-28T14:18:10.890Z,12.10
2017-10-28T14:20:39.776Z,12.20
2017-10-28T14:23:08.044Z,12.10
2017-10-28T14:25:36.301Z,12.10
2017-10-28T14:28:04.591Z,12.00
2017-10-28T14:30:32.880Z,11.90
2017-10-28T14:33:04.519Z,11.90
2017-10-28T14:35:32.815Z,11.90
2017-10-28T14:38:22.011Z,12.00
2017-10-28T14:40:50.295Z,11.90
2017-10-28T14:43:25.384Z,11.90
2017-10-28T14:45:54.071Z,12.00
2017-10-28T14:48:22.332Z,11.90
2017-10-28T14:50:50.603Z,11.90
2017-10-28T14:53:18.899Z,11.80
2017-10-28T14:55:47.159Z,11.70
2017-10-28T14:58:15.452Z,11.70
2017-10-28T15:00:43.742Z,11.60
2017-10-28T15:03:11.998Z,11.50
2017-10-28T15:05:40.284Z,11.50
2017-10-28T15:08:08.555Z,11.40
2017-10-28T15:10:36.843Z,11.40
2017-10-28T15:13:05.126Z,11.50
2017-10-28T15:15:33.383Z,11.40
2017-10-28T15:18:01.675Z,11.30
2017-10-28T15:20:29.944Z,11.30
2017-10-28T15:22:58.198Z,11.30
2017-10-28T15:25:26.483Z,11.30
2017-10-28T15:27:55.506Z,11.30
2017-10-28T15:30:24.940Z,11.20
2017-10-28T15:32:53.203Z,11.20
2017-10-28T15:35:21.455Z,11.10
2017-10-28T15:37:49.738Z,11.10
2017-10-28T15:40:18.000Z,11.00
2017-10-28T15:42:46.288Z,11.10
2017-10-28T15:45:14.584Z,11.10
2017-10-28T15:47:43.760Z,11.10
2017-10-28T15:50:12.060Z,11.10
2017-10-28T15:52:40.670Z,11.10
2017-10-28T15:55:08.946Z,11.00
2017-10-28T15:57:37.230Z,11.00
2017-10-28T16:00:05.519Z,11.00
2017-10-28T16:02:33.784Z,11.10
2017-10-28T16:05:02.071Z,11.00
2017-10-28T16:07:30.322Z,11.00
2017-10-28T16:09:58.620Z,11.00
2017-10-28T16:12:26.880Z,11.00
2017-10-28T16:14:55.735Z,11.00
2017-10-28T16:17:24.692Z,11.00
2017-10-28T16:19:52.951Z,11.00
2017-10-28T16:22:21.211Z,11.00
2017-10-28T16:24:49.486Z,11.00
2017-10-28T16:27:17.742Z,11.10
2017-10-28T16:29:46.035Z,11.00
2017-10-28T16:32:14.311Z,11.00
2017-10-28T16:34:42.588Z,11.00
2017-10-28T16:37:11.540Z,11.00
2017-10-28T16:39:40.562Z,11.00
2017-10-28T16:42:08.860Z,11.00
2017-10-28T16:44:37.287Z,11.00
2017-10-28T16:47:05.539Z,11.00
2017-10-28T16:49:33.818Z,11.00
2017-10-28T16:52:02.108Z,11.00
2017-10-28T16:54:30.376Z,11.10
2017-10-28T16:56:58.698Z,11.00
2017-10-28T16:59:26.962Z,11.00
2017-10-28T17:01:56.243Z,11.00
2017-10-28T17:04:25.294Z,11.00
2017-10-28T17:06:54.187Z,11.10
2017-10-28T17:09:22.487Z,11.10
2017-10-28T17:11:50.756Z,11.00
2017-10-28T17:14:19.050Z,11.00
2017-10-28T17:16:47.311Z,11.00
2017-10-28T17:19:15.615Z,11.00
2017-10-28T17:21:43.883Z,11.00
2017-10-28T17:24:12.132Z,11.00
2017-10-28T17:26:40.429Z,11.00
2017-10-28T17:29:08.695Z,11.00
2017-10-28T17:31:36.968Z,11.10
2017-10-28T17:34:05.264Z,11.10
2017-10-28T17:36:33.523Z,11.10
2017-10-28T17:39:01.811Z,11.10
2017-10-28T17:41:30.072Z,11.10
2017-10-28T17:43:58.331Z,11.20
2017-10-28T17:46:26.623Z,11.20
2017-10-28T17:48:55.887Z,11.10
2017-10-28T17:51:24.699Z,11.10
2017-10-28T17:53:53.002Z,11.10
2017-10-28T17:56:21.270Z,11.20
2017-10-28T17:58:49.538Z,11.30
2017-10-28T18:01:17.828Z,11.20
2017-10-28T18:03:46.120Z,11.30
2017-10-28T18:06:14.409Z,11.30
2017-10-28T18:08:43.569Z,11.30
2017-10-28T18:11:11.860Z,11.30
2017-10-28T18:13:40.654Z,11.30
2017-10-28T18:16:08.950Z,11.30
2017-10-28T18:18:38.462Z,11.20
2017-10-28T18:21:06.710Z,11.40
2017-10-28T18:23:34.993Z,11.30
2017-10-28T18:26:03.270Z,11.40
2017-10-28T18:28:33.521Z,11.40
2017-10-28T18:31:01.824Z,11.40
2017-10-28T18:33:30.088Z,11.40
2017-10-28T18:35:58.343Z,11.40
2017-10-28T18:38:32.683Z,11.40
2017-10-28T18:41:00.940Z,11.50
2017-10-28T18:43:30.191Z,11.50
2017-10-28T18:45:58.462Z,11.50
2017-10-28T18:48:34.083Z,11.60
2017-10-28T18:51:02.356Z,11.60
2017-10-28T18:53:30.639Z,11.60
2017-10-28T18:55:58.897Z,11.60
2017-10-28T18:58:29.103Z,11.70
2017-10-28T19:00:57.387Z,11.70
2017-10-28T19:03:28.527Z,11.70
2017-10-28T19:05:56.834Z,11.70
2017-10-28T19:08:35.303Z,11.70
2017-10-28T19:11:03.599Z,11.70
2017-10-28T19:13:32.811Z,11.70
2017-10-28T19:16:01.094Z,11.80
2017-10-28T19:18:29.346Z,11.80
2017-10-28T19:20:57.607Z,11.80
2017-10-28T19:23:25.915Z,11.80
2017-10-28T19:25:55.142Z,11.80
2017-10-28T19:28:24.072Z,11.90
2017-10-28T19:30:52.352Z,11.90
2017-10-28T19:33:20.655Z,11.90
2017-10-28T19:35:48.910Z,12.00
2017-10-28T19:38:17.166Z,12.00
2017-10-28T19:40:45.454Z,12.00
2017-10-28T19:43:25.628Z,12.10
2017-10-28T19:45:54.668Z,12.10
2017-10-28T19:48:25.771Z,12.10
2017-10-28T19:50:54.683Z,12.10
2017-10-28T19:53:28.085Z,12.10
2017-10-28T19:55:56.700Z,12.10
2017-10-28T19:58:25.910Z,12.20
2017-10-28T20:00:54.862Z,12.20
2017-10-28T20:03:29.003Z,12.20
2017-10-28T20:05:57.258Z,12.20
2017-10-28T20:08:26.497Z,12.20
2017-10-28T20:11:04.729Z,12.20
2017-10-28T20:13:32.996Z,12.30
2017-10-28T20:16:07.131Z,12.30
2017-10-28T20:18:35.386Z,12.30
2017-10-28T20:21:03.688Z,12.30
2017-10-28T20:23:31.934Z,12.30
2017-10-28T20:26:03.562Z,12.30
2017-10-28T20:28:31.815Z,12.40
2017-10-28T20:31:15.096Z,12.40
2017-10-28T20:33:43.400Z,12.40
2017-10-28T20:36:11.659Z,12.40
2017-10-28T20:38:41.291Z,12.40
2017-10-28T20:41:09.583Z,12.50
2017-10-28T20:43:38.849Z,12.50
2017-10-28T20:46:07.119Z,12.60
2017-10-28T20:48:34.639Z,12.60
2017-10-28T20:51:02.929Z,12.60
2017-10-28T20:53:41.559Z,12.60
2017-10-28T20:56:10.763Z,12.60
2017-10-28T20:58:39.052Z,12.70
2017-10-28T21:01:07.315Z,12.70
2017-10-28T21:03:35.619Z,12.70
2017-10-28T21:06:25.714Z,12.60
2017-10-28T21:08:55.258Z,12.60
2017-10-28T21:11:25.532Z,12.70
2017-10-28T21:13:54.191Z,12.60
2017-10-28T21:16:22.488Z,12.70
2017-10-28T21:18:50.741Z,12.70
2017-10-28T21:21:31.868Z,12.70
2017-10-28T21:24:00.149Z,12.80
2017-10-28T21:26:28.443Z,12.80
2017-10-28T21:28:56.290Z,12.70
2017-10-28T21:31:24.991Z,12.80
2017-10-28T21:33:53.273Z,12.80
2017-10-28T21:36:26.491Z,12.70
2017-10-28T21:38:55.166Z,12.80
2017-10-28T21:41:25.039Z,12.90
2017-10-28T21:43:54.932Z,12.80
2017-10-28T21:46:23.307Z,12.90
2017-10-28T21:48:51.575Z,12.90
2017-10-28T21:51:19.824Z,12.90
2017-10-28T21:53:51.667Z,12.80
2017-10-28T21:56:19.936Z,12.90
2017-10-28T21:58:48.203Z,12.90
2017-10-28T22:01:16.491Z,12.90
2017-10-28T22:03:47.942Z,12.90
2017-10-28T22:06:16.222Z,12.90
2017-10-28T22:08:44.480Z,13.00
2017-10-28T22:11:12.767Z,12.90
2017-10-28T22:13:51.027Z,13.00
2017-10-28T22:16:19.332Z,13.10
2017-10-28T22:18:51.308Z,13.10
2017-10-28T22:21:19.612Z,13.20
2017-10-28T22:23:48.879Z,13.20
2017-10-28T22:26:17.136Z,13.20
2017-10-28T22:28:45.654Z,13.20
2017-10-28T22:31:13.917Z,13.30
2017-10-28T22:33:42.234Z,13.30
2017-10-28T22:36:10.489Z,13.30
2017-10-28T22:38:41.115Z,13.30
2017-10-28T22:41:09.918Z,13.30
2017-10-28T22:43:41.540Z,13.40
2017-10-28T22:46:10.943Z,13.50
2017-10-28T22:48:40.029Z,13.40
2017-10-28T22:51:08.306Z,13.50
2017-10-28T22:53:47.123Z,13.40
2017-10-28T22:56:15.425Z,13.30
2017-10-28T22:58:43.687Z,13.40
2017-10-28T23:01:11.940Z,13.50
2017-10-28T23:03:46.287Z,13.50
2017-10-28T23:06:14.584Z,13.50
2017-10-28T23:08:42.887Z,13.50
2017-10-28T23:11:11.839Z,13.50
2017-10-28T23:13:40.576Z,13.60
2017-10-28T23:16:12.274Z,13.60
2017-10-28T23:18:40.544Z,13.60
2017-10-28T23:21:17.109Z,13.60
2017-10-28T23:23:45.362Z,13.70
2017-10-28T23:26:14.597Z,13.70
2017-10-28T23:28:42.899Z,13.60
2017-10-28T23:31:21.433Z,13.50
2017-10-28T23:33:49.728Z,13.60
2017-10-28T23:36:17.995Z,13.60
2017-10-28T23:38:52.122Z,13.60
2017-10-28T23:41:20.403Z,13.60
2017-10-28T23:43:52.423Z,13.50
2017-10-28T23:46:20.706Z,13.50
2017-10-28T23:48:48.988Z,13.50
2017-10-28T23:51:17.238Z,13.50
2017-10-28T23:53:52.470Z,13.60
2017-10-28T23:56:20.727Z,13.50
2017-10-28T23:58:56.118Z,13.50
